sensor_id;sensor_type;location;lat;lon;timestamp;P1;durP1;ratioP1;P2;durP2;ratioP2
67156;SDS011;54086;50.126;8.710;2023-04-15T00:00:14;8.35;;;3.90;;
67156;SDS011;54086;50.126;8.710;2023-04-15T00:02:40;16.25;;;9.13;;
67156;SDS011;54086;50.126;8.710;2023-04-15T00:05:06;10.95;;;4.88;;
67156;SDS011;54086;50.126;8.710;2023-04-15T00:07:32;8.13;;;4.00;;
67156;SDS011;54086;50.126;8.710;2023-04-15T00:09:58;10.03;;;4.30;;
67156;SDS011;54086;50.126;8.710;2023-04-15T00:12:26;10.77;;;4.70;;
67156;SDS011;54086;50.126;8.710;2023-04-15T00:14:52;9.13;;;4.30;;
67156;SDS011;54086;50.126;8.710;2023-04-15T00:17:21;11.40;;;4.43;;
67156;SDS011;54086;50.126;8.710;2023-04-15T00:19:46;11.60;;;4.23;;
67156;SDS011;54086;50.126;8.710;2023-04-15T00:22:12;9.27;;;4.65;;
67156;SDS011;54086;50.126;8.710;2023-04-15T00:24:37;11.70;;;4.30;;
67156;SDS011;54086;50.126;8.710;2023-04-15T00:27:05;9.13;;;4.30;;
67156;SDS011;54086;50.126;8.710;2023-04-15T00:29:32;12.00;;;4.53;;
67156;SDS011;54086;50.126;8.710;2023-04-15T00:31:58;9.53;;;4.63;;
67156;SDS011;54086;50.126;8.710;2023-04-15T00:34:24;9.27;;;4.28;;
67156;SDS011;54086;50.126;8.710;2023-04-15T00:36:49;10.17;;;4.73;;
67156;SDS011;54086;50.126;8.710;2023-04-15T00:39:16;10.63;;;4.38;;
67156;SDS011;54086;50.126;8.710;2023-04-15T00:41:42;9.73;;;4.47;;
67156;SDS011;54086;50.126;8.710;2023-04-15T00:44:08;14.32;;;7.15;;
67156;SDS011;54086;50.126;8.710;2023-04-15T00:46:34;8.95;;;4.20;;
67156;SDS011;54086;50.126;8.710;2023-04-15T00:49:02;9.67;;;4.50;;
67156;SDS011;54086;50.126;8.710;2023-04-15T00:51:29;9.02;;;4.45;;
67156;SDS011;54086;50.126;8.710;2023-04-15T00:53:57;9.70;;;4.10;;
67156;SDS011;54086;50.126;8.710;2023-04-15T00:56:23;9.25;;;4.68;;
67156;SDS011;54086;50.126;8.710;2023-04-15T00:58:50;10.07;;;4.07;;
67156;SDS011;54086;50.126;8.710;2023-04-15T01:01:18;9.70;;;4.10;;
67156;SDS011;54086;50.126;8.710;2023-04-15T01:03:46;10.13;;;4.20;;
67156;SDS011;54086;50.126;8.710;2023-04-15T01:06:14;8.52;;;4.25;;
67156;SDS011;54086;50.126;8.710;2023-04-15T01:08:40;8.27;;;4.32;;
67156;SDS011;54086;50.126;8.710;2023-04-15T01:11:12;9.07;;;4.05;;
67156;SDS011;54086;50.126;8.710;2023-04-15T01:13:38;8.37;;;3.67;;
67156;SDS011;54086;50.126;8.710;2023-04-15T01:16:04;8.77;;;3.88;;
67156;SDS011;54086;50.126;8.710;2023-04-15T01:18:31;11.52;;;4.35;;
67156;SDS011;54086;50.126;8.710;2023-04-15T01:20:57;10.18;;;4.28;;
67156;SDS011;54086;50.126;8.710;2023-04-15T01:23:25;8.77;;;4.10;;
67156;SDS011;54086;50.126;8.710;2023-04-15T01:25:52;9.55;;;4.07;;
67156;SDS011;54086;50.126;8.710;2023-04-15T01:28:17;7.90;;;3.67;;
67156;SDS011;54086;50.126;8.710;2023-04-15T01:30:43;10.83;;;4.10;;
67156;SDS011;54086;50.126;8.710;2023-04-15T01:33:08;8.03;;;4.00;;
67156;SDS011;54086;50.126;8.710;2023-04-15T01:35:34;7.60;;;3.70;;
67156;SDS011;54086;50.126;8.710;2023-04-15T01:38:06;12.23;;;4.38;;
67156;SDS011;54086;50.126;8.710;2023-04-15T01:40:33;12.10;;;3.80;;
67156;SDS011;54086;50.126;8.710;2023-04-15T01:43:00;7.05;;;3.40;;
67156;SDS011;54086;50.126;8.710;2023-04-15T01:45:26;9.30;;;4.00;;
67156;SDS011;54086;50.126;8.710;2023-04-15T01:47:52;10.25;;;3.53;;
67156;SDS011;54086;50.126;8.710;2023-04-15T01:50:18;8.27;;;3.90;;
67156;SDS011;54086;50.126;8.710;2023-04-15T01:52:44;13.40;;;4.50;;
67156;SDS011;54086;50.126;8.710;2023-04-15T01:55:10;12.88;;;4.32;;
67156;SDS011;54086;50.126;8.710;2023-04-15T01:57:36;8.75;;;3.60;;
67156;SDS011;54086;50.126;8.710;2023-04-15T02:00:02;9.53;;;4.20;;
67156;SDS011;54086;50.126;8.710;2023-04-15T02:02:28;8.68;;;3.80;;
67156;SDS011;54086;50.126;8.710;2023-04-15T02:04:54;9.15;;;4.13;;
67156;SDS011;54086;50.126;8.710;2023-04-15T02:07:20;8.20;;;3.80;;
67156;SDS011;54086;50.126;8.710;2023-04-15T02:09:45;9.45;;;4.13;;
67156;SDS011;54086;50.126;8.710;2023-04-15T02:12:12;12.40;;;4.07;;
67156;SDS011;54086;50.126;8.710;2023-04-15T02:14:37;8.53;;;4.13;;
67156;SDS011;54086;50.126;8.710;2023-04-15T02:17:03;10.88;;;4.10;;
67156;SDS011;54086;50.126;8.710;2023-04-15T02:19:32;10.60;;;4.73;;
67156;SDS011;54086;50.126;8.710;2023-04-15T02:21:58;9.43;;;4.00;;
67156;SDS011;54086;50.126;8.710;2023-04-15T02:24:25;8.35;;;3.60;;
67156;SDS011;54086;50.126;8.710;2023-04-15T02:26:51;10.68;;;4.13;;
67156;SDS011;54086;50.126;8.710;2023-04-15T02:29:18;7.80;;;3.93;;
67156;SDS011;54086;50.126;8.710;2023-04-15T02:31:43;11.02;;;4.20;;
67156;SDS011;54086;50.126;8.710;2023-04-15T02:34:09;10.63;;;4.80;;
67156;SDS011;54086;50.126;8.710;2023-04-15T02:36:34;10.47;;;3.93;;
67156;SDS011;54086;50.126;8.710;2023-04-15T02:39:00;11.07;;;4.50;;
67156;SDS011;54086;50.126;8.710;2023-04-15T02:41:26;11.38;;;4.30;;
67156;SDS011;54086;50.126;8.710;2023-04-15T02:43:54;8.48;;;4.05;;
67156;SDS011;54086;50.126;8.710;2023-04-15T02:46:20;10.18;;;4.35;;
67156;SDS011;54086;50.126;8.710;2023-04-15T02:48:46;8.83;;;3.83;;
67156;SDS011;54086;50.126;8.710;2023-04-15T02:51:16;10.27;;;4.10;;
67156;SDS011;54086;50.126;8.710;2023-04-15T02:53:46;10.15;;;4.20;;
67156;SDS011;54086;50.126;8.710;2023-04-15T02:56:13;9.75;;;4.18;;
67156;SDS011;54086;50.126;8.710;2023-04-15T02:58:43;11.10;;;4.38;;
67156;SDS011;54086;50.126;8.710;2023-04-15T03:01:09;9.53;;;4.23;;
67156;SDS011;54086;50.126;8.710;2023-04-15T03:03:35;10.68;;;4.57;;
67156;SDS011;54086;50.126;8.710;2023-04-15T03:06:01;10.68;;;4.53;;
67156;SDS011;54086;50.126;8.710;2023-04-15T03:08:32;9.73;;;4.90;;
67156;SDS011;54086;50.126;8.710;2023-04-15T03:10:58;10.35;;;4.97;;
67156;SDS011;54086;50.126;8.710;2023-04-15T03:13:26;11.53;;;4.53;;
67156;SDS011;54086;50.126;8.710;2023-04-15T03:15:51;10.18;;;4.10;;
67156;SDS011;54086;50.126;8.710;2023-04-15T03:18:17;10.60;;;4.00;;
67156;SDS011;54086;50.126;8.710;2023-04-15T03:20:43;11.30;;;4.25;;
67156;SDS011;54086;50.126;8.710;2023-04-15T03:23:08;11.60;;;5.10;;
67156;SDS011;54086;50.126;8.710;2023-04-15T03:25:33;10.97;;;4.70;;
67156;SDS011;54086;50.126;8.710;2023-04-15T03:28:01;10.68;;;4.72;;
67156;SDS011;54086;50.126;8.710;2023-04-15T03:30:27;10.17;;;4.70;;
67156;SDS011;54086;50.126;8.710;2023-04-15T03:32:52;8.98;;;4.10;;
67156;SDS011;54086;50.126;8.710;2023-04-15T03:35:18;13.07;;;4.90;;
67156;SDS011;54086;50.126;8.710;2023-04-15T03:37:43;9.87;;;5.00;;
67156;SDS011;54086;50.126;8.710;2023-04-15T03:40:09;9.50;;;4.97;;
67156;SDS011;54086;50.126;8.710;2023-04-15T03:42:34;12.10;;;5.47;;
67156;SDS011;54086;50.126;8.710;2023-04-15T03:45:00;11.85;;;7.40;;
67156;SDS011;54086;50.126;8.710;2023-04-15T03:47:25;13.00;;;5.33;;
67156;SDS011;54086;50.126;8.710;2023-04-15T03:49:51;14.30;;;5.70;;
67156;SDS011;54086;50.126;8.710;2023-04-15T03:52:16;12.07;;;5.37;;
67156;SDS011;54086;50.126;8.710;2023-04-15T03:54:41;11.23;;;5.23;;
67156;SDS011;54086;50.126;8.710;2023-04-15T03:57:07;10.60;;;5.82;;
67156;SDS011;54086;50.126;8.710;2023-04-15T03:59:32;12.20;;;5.30;;
67156;SDS011;54086;50.126;8.710;2023-04-15T04:01:58;20.10;;;5.90;;
67156;SDS011;54086;50.126;8.710;2023-04-15T04:04:23;10.93;;;5.20;;
67156;SDS011;54086;50.126;8.710;2023-04-15T04:06:49;10.63;;;4.93;;
67156;SDS011;54086;50.126;8.710;2023-04-15T04:09:14;11.27;;;5.90;;
67156;SDS011;54086;50.126;8.710;2023-04-15T04:11:40;11.73;;;5.40;;
67156;SDS011;54086;50.126;8.710;2023-04-15T04:14:05;10.15;;;5.50;;
67156;SDS011;54086;50.126;8.710;2023-04-15T04:16:31;12.77;;;5.30;;
67156;SDS011;54086;50.126;8.710;2023-04-15T04:18:56;11.27;;;5.90;;
67156;SDS011;54086;50.126;8.710;2023-04-15T04:21:22;11.43;;;5.13;;
67156;SDS011;54086;50.126;8.710;2023-04-15T04:23:47;12.17;;;5.50;;
67156;SDS011;54086;50.126;8.710;2023-04-15T04:26:12;10.90;;;6.17;;
67156;SDS011;54086;50.126;8.710;2023-04-15T04:28:38;14.10;;;6.70;;
67156;SDS011;54086;50.126;8.710;2023-04-15T04:31:05;13.18;;;5.68;;
67156;SDS011;54086;50.126;8.710;2023-04-15T04:33:31;11.18;;;5.82;;
67156;SDS011;54086;50.126;8.710;2023-04-15T04:35:57;12.05;;;5.47;;
67156;SDS011;54086;50.126;8.710;2023-04-15T04:38:22;12.87;;;6.17;;
67156;SDS011;54086;50.126;8.710;2023-04-15T04:40:47;14.00;;;6.03;;
67156;SDS011;54086;50.126;8.710;2023-04-15T04:43:13;13.17;;;5.67;;
67156;SDS011;54086;50.126;8.710;2023-04-15T04:45:40;12.18;;;5.82;;
67156;SDS011;54086;50.126;8.710;2023-04-15T04:48:05;10.75;;;5.32;;
67156;SDS011;54086;50.126;8.710;2023-04-15T04:50:32;13.57;;;5.97;;
67156;SDS011;54086;50.126;8.710;2023-04-15T04:53:00;13.50;;;5.87;;
67156;SDS011;54086;50.126;8.710;2023-04-15T04:55:26;11.95;;;5.88;;
67156;SDS011;54086;50.126;8.710;2023-04-15T04:57:52;11.70;;;6.00;;
67156;SDS011;54086;50.126;8.710;2023-04-15T05:00:17;12.87;;;6.00;;
67156;SDS011;54086;50.126;8.710;2023-04-15T05:02:43;11.10;;;5.77;;
67156;SDS011;54086;50.126;8.710;2023-04-15T05:05:09;14.68;;;6.65;;
67156;SDS011;54086;50.126;8.710;2023-04-15T05:07:35;15.18;;;6.35;;
67156;SDS011;54086;50.126;8.710;2023-04-15T05:10:02;19.90;;;7.00;;
67156;SDS011;54086;50.126;8.710;2023-04-15T05:12:28;14.30;;;6.35;;
67156;SDS011;54086;50.126;8.710;2023-04-15T05:14:53;13.70;;;6.43;;
67156;SDS011;54086;50.126;8.710;2023-04-15T05:17:19;11.27;;;6.00;;
67156;SDS011;54086;50.126;8.710;2023-04-15T05:19:44;13.13;;;5.80;;
67156;SDS011;54086;50.126;8.710;2023-04-15T05:22:10;14.90;;;5.60;;
67156;SDS011;54086;50.126;8.710;2023-04-15T05:24:35;12.20;;;6.20;;
67156;SDS011;54086;50.126;8.710;2023-04-15T05:27:00;12.90;;;5.80;;
67156;SDS011;54086;50.126;8.710;2023-04-15T05:29:26;11.80;;;5.97;;
67156;SDS011;54086;50.126;8.710;2023-04-15T05:31:52;12.23;;;5.82;;
67156;SDS011;54086;50.126;8.710;2023-04-15T05:34:17;9.93;;;5.00;;
67156;SDS011;54086;50.126;8.710;2023-04-15T05:36:42;11.23;;;5.87;;
67156;SDS011;54086;50.126;8.710;2023-04-15T05:39:08;14.13;;;6.47;;
67156;SDS011;54086;50.126;8.710;2023-04-15T05:41:33;13.20;;;5.53;;
67156;SDS011;54086;50.126;8.710;2023-04-15T05:43:59;11.57;;;5.70;;
67156;SDS011;54086;50.126;8.710;2023-04-15T05:46:24;10.43;;;5.47;;
67156;SDS011;54086;50.126;8.710;2023-04-15T05:48:50;12.50;;;5.95;;
67156;SDS011;54086;50.126;8.710;2023-04-15T05:51:15;11.23;;;5.63;;
67156;SDS011;54086;50.126;8.710;2023-04-15T05:53:41;10.80;;;5.63;;
67156;SDS011;54086;50.126;8.710;2023-04-15T05:56:06;13.38;;;6.22;;
67156;SDS011;54086;50.126;8.710;2023-04-15T05:58:32;19.30;;;6.87;;
67156;SDS011;54086;50.126;8.710;2023-04-15T06:00:57;12.20;;;5.97;;
67156;SDS011;54086;50.126;8.710;2023-04-15T06:03:23;11.80;;;5.47;;
67156;SDS011;54086;50.126;8.710;2023-04-15T06:05:55;14.40;;;6.40;;
67156;SDS011;54086;50.126;8.710;2023-04-15T06:08:21;13.70;;;6.25;;
67156;SDS011;54086;50.126;8.710;2023-04-15T06:10:46;11.77;;;6.03;;
67156;SDS011;54086;50.126;8.710;2023-04-15T06:13:12;12.65;;;5.47;;
67156;SDS011;54086;50.126;8.710;2023-04-15T06:15:37;10.93;;;6.20;;
67156;SDS011;54086;50.126;8.710;2023-04-15T06:18:03;13.17;;;6.23;;
67156;SDS011;54086;50.126;8.710;2023-04-15T06:20:29;11.65;;;5.50;;
67156;SDS011;54086;50.126;8.710;2023-04-15T06:22:54;16.75;;;6.65;;
67156;SDS011;54086;50.126;8.710;2023-04-15T06:25:20;11.77;;;5.73;;
67156;SDS011;54086;50.126;8.710;2023-04-15T06:27:45;11.87;;;6.27;;
67156;SDS011;54086;50.126;8.710;2023-04-15T06:30:11;14.20;;;6.40;;
67156;SDS011;54086;50.126;8.710;2023-04-15T06:32:37;11.98;;;6.45;;
67156;SDS011;54086;50.126;8.710;2023-04-15T06:35:03;10.30;;;5.80;;
67156;SDS011;54086;50.126;8.710;2023-04-15T06:37:28;13.43;;;6.28;;
67156;SDS011;54086;50.126;8.710;2023-04-15T06:39:54;15.17;;;5.77;;
67156;SDS011;54086;50.126;8.710;2023-04-15T06:42:19;11.83;;;5.87;;
67156;SDS011;54086;50.126;8.710;2023-04-15T06:44:45;11.25;;;6.43;;
67156;SDS011;54086;50.126;8.710;2023-04-15T06:47:10;12.57;;;5.73;;
67156;SDS011;54086;50.126;8.710;2023-04-15T06:49:38;10.48;;;6.05;;
67156;SDS011;54086;50.126;8.710;2023-04-15T06:52:04;13.33;;;6.00;;
67156;SDS011;54086;50.126;8.710;2023-04-15T06:54:29;11.20;;;6.35;;
67156;SDS011;54086;50.126;8.710;2023-04-15T06:56:55;12.03;;;6.13;;
67156;SDS011;54086;50.126;8.710;2023-04-15T06:59:20;13.17;;;6.10;;
67156;SDS011;54086;50.126;8.710;2023-04-15T07:01:46;11.33;;;6.63;;
67156;SDS011;54086;50.126;8.710;2023-04-15T07:04:11;10.75;;;6.30;;
67156;SDS011;54086;50.126;8.710;2023-04-15T07:06:37;12.20;;;6.80;;
67156;SDS011;54086;50.126;8.710;2023-04-15T07:09:04;13.75;;;7.03;;
67156;SDS011;54086;50.126;8.710;2023-04-15T07:11:29;14.80;;;6.23;;
67156;SDS011;54086;50.126;8.710;2023-04-15T07:13:56;14.38;;;6.97;;
67156;SDS011;54086;50.126;8.710;2023-04-15T07:16:22;12.00;;;6.18;;
67156;SDS011;54086;50.126;8.710;2023-04-15T07:18:47;11.20;;;5.83;;
67156;SDS011;54086;50.126;8.710;2023-04-15T07:21:14;11.13;;;6.20;;
67156;SDS011;54086;50.126;8.710;2023-04-15T07:23:40;11.43;;;6.15;;
67156;SDS011;54086;50.126;8.710;2023-04-15T07:28:37;10.68;;;6.10;;
67156;SDS011;54086;50.126;8.710;2023-04-15T07:31:02;11.37;;;6.60;;
67156;SDS011;54086;50.126;8.710;2023-04-15T07:33:28;14.03;;;6.77;;
67156;SDS011;54086;50.126;8.710;2023-04-15T07:35:53;11.63;;;6.40;;
67156;SDS011;54086;50.126;8.710;2023-04-15T07:38:18;15.15;;;6.35;;
67156;SDS011;54086;50.126;8.710;2023-04-15T07:40:45;11.53;;;6.43;;
67156;SDS011;54086;50.126;8.710;2023-04-15T07:43:10;12.00;;;6.15;;
67156;SDS011;54086;50.126;8.710;2023-04-15T07:45:37;12.07;;;6.03;;
67156;SDS011;54086;50.126;8.710;2023-04-15T07:48:07;12.73;;;5.65;;
67156;SDS011;54086;50.126;8.710;2023-04-15T07:50:43;11.97;;;6.30;;
67156;SDS011;54086;50.126;8.710;2023-04-15T07:53:09;12.65;;;6.43;;
67156;SDS011;54086;50.126;8.710;2023-04-15T07:55:34;12.83;;;6.00;;
67156;SDS011;54086;50.126;8.710;2023-04-15T07:57:59;11.27;;;5.70;;
67156;SDS011;54086;50.126;8.710;2023-04-15T08:00:25;13.40;;;6.43;;
67156;SDS011;54086;50.126;8.710;2023-04-15T08:02:51;14.20;;;6.30;;
67156;SDS011;54086;50.126;8.710;2023-04-15T08:05:17;12.30;;;6.20;;
67156;SDS011;54086;50.126;8.710;2023-04-15T08:07:43;11.17;;;5.60;;
67156;SDS011;54086;50.126;8.710;2023-04-15T08:10:09;10.98;;;5.50;;
67156;SDS011;54086;50.126;8.710;2023-04-15T08:12:36;13.77;;;6.50;;
67156;SDS011;54086;50.126;8.710;2023-04-15T08:15:01;12.03;;;6.23;;
67156;SDS011;54086;50.126;8.710;2023-04-15T08:17:27;12.90;;;5.70;;
67156;SDS011;54086;50.126;8.710;2023-04-15T08:19:53;12.70;;;6.70;;
67156;SDS011;54086;50.126;8.710;2023-04-15T08:22:18;10.50;;;6.18;;
67156;SDS011;54086;50.126;8.710;2023-04-15T08:24:43;11.40;;;5.20;;
67156;SDS011;54086;50.126;8.710;2023-04-15T08:27:09;13.57;;;6.47;;
67156;SDS011;54086;50.126;8.710;2023-04-15T08:29:35;12.17;;;5.90;;
67156;SDS011;54086;50.126;8.710;2023-04-15T08:32:00;12.03;;;7.37;;
67156;SDS011;54086;50.126;8.710;2023-04-15T08:34:26;8.38;;;4.22;;
67156;SDS011;54086;50.126;8.710;2023-04-15T08:36:52;9.60;;;4.93;;
67156;SDS011;54086;50.126;8.710;2023-04-15T08:39:18;9.30;;;4.63;;
67156;SDS011;54086;50.126;8.710;2023-04-15T08:41:47;12.93;;;5.50;;
67156;SDS011;54086;50.126;8.710;2023-04-15T08:44:16;10.85;;;4.78;;
67156;SDS011;54086;50.126;8.710;2023-04-15T08:46:42;10.38;;;4.63;;
67156;SDS011;54086;50.126;8.710;2023-04-15T08:49:11;9.50;;;4.57;;
67156;SDS011;54086;50.126;8.710;2023-04-15T08:51:38;9.55;;;4.47;;
67156;SDS011;54086;50.126;8.710;2023-04-15T08:54:04;8.83;;;3.83;;
67156;SDS011;54086;50.126;8.710;2023-04-15T08:56:30;9.07;;;4.18;;
67156;SDS011;54086;50.126;8.710;2023-04-15T08:58:57;11.90;;;6.00;;
67156;SDS011;54086;50.126;8.710;2023-04-15T09:01:23;10.75;;;4.40;;
67156;SDS011;54086;50.126;8.710;2023-04-15T09:03:49;7.60;;;3.90;;
67156;SDS011;54086;50.126;8.710;2023-04-15T09:06:15;8.02;;;3.63;;
67156;SDS011;54086;50.126;8.710;2023-04-15T09:08:42;9.68;;;4.00;;
67156;SDS011;54086;50.126;8.710;2023-04-15T09:11:07;6.77;;;3.10;;
67156;SDS011;54086;50.126;8.710;2023-04-15T09:13:33;7.70;;;3.47;;
67156;SDS011;54086;50.126;8.710;2023-04-15T09:16:00;6.77;;;3.30;;
67156;SDS011;54086;50.126;8.710;2023-04-15T09:18:31;7.65;;;3.20;;
67156;SDS011;54086;50.126;8.710;2023-04-15T09:21:05;9.70;;;4.30;;
67156;SDS011;54086;50.126;8.710;2023-04-15T09:23:32;8.90;;;4.00;;
67156;SDS011;54086;50.126;8.710;2023-04-15T09:25:58;9.02;;;3.22;;
67156;SDS011;54086;50.126;8.710;2023-04-15T09:28:24;7.13;;;3.20;;
67156;SDS011;54086;50.126;8.710;2023-04-15T09:30:59;9.10;;;3.80;;
67156;SDS011;54086;50.126;8.710;2023-04-15T09:33:27;8.03;;;3.87;;
67156;SDS011;54086;50.126;8.710;2023-04-15T09:36:01;7.60;;;3.42;;
67156;SDS011;54086;50.126;8.710;2023-04-15T09:38:28;8.45;;;3.67;;
67156;SDS011;54086;50.126;8.710;2023-04-15T09:40:55;7.78;;;3.13;;
67156;SDS011;54086;50.126;8.710;2023-04-15T09:43:21;8.85;;;3.50;;
67156;SDS011;54086;50.126;8.710;2023-04-15T09:45:50;7.17;;;3.17;;
67156;SDS011;54086;50.126;8.710;2023-04-15T09:48:18;7.00;;;2.83;;
67156;SDS011;54086;50.126;8.710;2023-04-15T09:50:45;7.97;;;2.80;;
67156;SDS011;54086;50.126;8.710;2023-04-15T09:53:16;7.68;;;3.03;;
67156;SDS011;54086;50.126;8.710;2023-04-15T09:55:50;8.50;;;3.30;;
67156;SDS011;54086;50.126;8.710;2023-04-15T09:58:26;6.75;;;3.17;;
67156;SDS011;54086;50.126;8.710;2023-04-15T10:00:53;7.30;;;2.83;;
67156;SDS011;54086;50.126;8.710;2023-04-15T10:03:31;8.48;;;2.88;;
67156;SDS011;54086;50.126;8.710;2023-04-15T10:05:59;7.50;;;3.05;;
67156;SDS011;54086;50.126;8.710;2023-04-15T10:08:32;7.33;;;2.70;;
67156;SDS011;54086;50.126;8.710;2023-04-15T10:10:59;9.02;;;3.22;;
67156;SDS011;54086;50.126;8.710;2023-04-15T10:13:28;6.45;;;2.65;;
67156;SDS011;54086;50.126;8.710;2023-04-15T10:15:57;8.32;;;3.10;;
67156;SDS011;54086;50.126;8.710;2023-04-15T10:18:31;8.75;;;2.80;;
67156;SDS011;54086;50.126;8.710;2023-04-15T10:20:59;8.13;;;2.50;;
67156;SDS011;54086;50.126;8.710;2023-04-15T10:23:26;7.07;;;2.90;;
67156;SDS011;54086;50.126;8.710;2023-04-15T10:25:52;7.97;;;3.30;;
67156;SDS011;54086;50.126;8.710;2023-04-15T10:28:19;7.38;;;3.05;;
67156;SDS011;54086;50.126;8.710;2023-04-15T10:30:46;8.57;;;3.10;;
67156;SDS011;54086;50.126;8.710;2023-04-15T10:33:13;6.30;;;2.22;;
67156;SDS011;54086;50.126;8.710;2023-04-15T10:35:41;6.05;;;3.08;;
67156;SDS011;54086;50.126;8.710;2023-04-15T10:38:49;7.03;;;2.90;;
67156;SDS011;54086;50.126;8.710;2023-04-15T10:43:46;6.87;;;3.03;;
67156;SDS011;54086;50.126;8.710;2023-04-15T10:46:38;6.60;;;2.90;;
67156;SDS011;54086;50.126;8.710;2023-04-15T10:51:39;7.60;;;3.25;;
67156;SDS011;54086;50.126;8.710;2023-04-15T10:54:13;7.07;;;3.35;;
67156;SDS011;54086;50.126;8.710;2023-04-15T10:56:43;8.47;;;2.87;;
67156;SDS011;54086;50.126;8.710;2023-04-15T10:59:09;7.38;;;3.00;;
67156;SDS011;54086;50.126;8.710;2023-04-15T11:04:50;6.53;;;2.70;;
67156;SDS011;54086;50.126;8.710;2023-04-15T11:07:32;5.93;;;2.63;;
67156;SDS011;54086;50.126;8.710;2023-04-15T11:09:58;7.30;;;2.78;;
67156;SDS011;54086;50.126;8.710;2023-04-15T11:12:31;7.10;;;3.10;;
67156;SDS011;54086;50.126;8.710;2023-04-15T11:14:59;7.57;;;2.95;;
67156;SDS011;54086;50.126;8.710;2023-04-15T11:17:27;10.00;;;3.30;;
67156;SDS011;54086;50.126;8.710;2023-04-15T11:19:55;7.97;;;3.10;;
67156;SDS011;54086;50.126;8.710;2023-04-15T11:22:21;6.43;;;2.90;;
67156;SDS011;54086;50.126;8.710;2023-04-15T11:24:47;6.83;;;3.00;;
67156;SDS011;54086;50.126;8.710;2023-04-15T11:27:23;7.72;;;3.28;;
67156;SDS011;54086;50.126;8.710;2023-04-15T11:29:49;7.07;;;3.40;;
67156;SDS011;54086;50.126;8.710;2023-04-15T11:32:15;6.47;;;3.13;;
67156;SDS011;54086;50.126;8.710;2023-04-15T11:34:40;7.13;;;2.80;;
67156;SDS011;54086;50.126;8.710;2023-04-15T11:37:06;6.18;;;2.75;;
67156;SDS011;54086;50.126;8.710;2023-04-15T11:39:32;7.40;;;3.33;;
67156;SDS011;54086;50.126;8.710;2023-04-15T11:41:57;6.40;;;2.63;;
67156;SDS011;54086;50.126;8.710;2023-04-15T11:44:22;7.30;;;3.50;;
67156;SDS011;54086;50.126;8.710;2023-04-15T11:46:48;7.90;;;3.20;;
67156;SDS011;54086;50.126;8.710;2023-04-15T11:49:29;9.48;;;2.95;;
67156;SDS011;54086;50.126;8.710;2023-04-15T11:51:55;7.87;;;2.93;;
67156;SDS011;54086;50.126;8.710;2023-04-15T11:54:20;6.80;;;3.08;;
67156;SDS011;54086;50.126;8.710;2023-04-15T11:56:49;7.13;;;3.30;;
67156;SDS011;54086;50.126;8.710;2023-04-15T11:59:16;10.73;;;4.00;;
67156;SDS011;54086;50.126;8.710;2023-04-15T12:01:41;8.47;;;3.73;;
67156;SDS011;54086;50.126;8.710;2023-04-15T12:04:15;9.60;;;3.25;;
67156;SDS011;54086;50.126;8.710;2023-04-15T12:06:43;8.52;;;3.80;;
67156;SDS011;54086;50.126;8.710;2023-04-15T12:09:10;7.93;;;3.63;;
67156;SDS011;54086;50.126;8.710;2023-04-15T12:14:10;7.32;;;3.38;;
67156;SDS011;54086;50.126;8.710;2023-04-15T12:16:38;7.47;;;3.40;;
67156;SDS011;54086;50.126;8.710;2023-04-15T12:19:06;8.40;;;3.80;;
67156;SDS011;54086;50.126;8.710;2023-04-15T12:21:38;7.63;;;3.23;;
67156;SDS011;54086;50.126;8.710;2023-04-15T12:24:06;7.47;;;3.47;;
67156;SDS011;54086;50.126;8.710;2023-04-15T12:26:34;8.18;;;3.35;;
67156;SDS011;54086;50.126;8.710;2023-04-15T12:29:11;9.50;;;4.63;;
67156;SDS011;54086;50.126;8.710;2023-04-15T12:31:47;8.77;;;3.65;;
67156;SDS011;54086;50.126;8.710;2023-04-15T12:34:13;7.10;;;3.60;;
67156;SDS011;54086;50.126;8.710;2023-04-15T12:36:39;7.88;;;3.60;;
67156;SDS011;54086;50.126;8.710;2023-04-15T12:39:05;9.30;;;3.73;;
67156;SDS011;54086;50.126;8.710;2023-04-15T12:41:31;12.13;;;4.00;;
67156;SDS011;54086;50.126;8.710;2023-04-15T12:43:57;7.95;;;3.83;;
67156;SDS011;54086;50.126;8.710;2023-04-15T12:46:23;10.07;;;4.43;;
67156;SDS011;54086;50.126;8.710;2023-04-15T12:48:49;7.57;;;3.60;;
67156;SDS011;54086;50.126;8.710;2023-04-15T12:51:16;7.95;;;3.38;;
67156;SDS011;54086;50.126;8.710;2023-04-15T12:53:41;8.17;;;3.67;;
67156;SDS011;54086;50.126;8.710;2023-04-15T12:56:07;6.57;;;2.97;;
67156;SDS011;54086;50.126;8.710;2023-04-15T12:58:32;8.50;;;3.13;;
67156;SDS011;54086;50.126;8.710;2023-04-15T13:00:57;5.83;;;2.50;;
67156;SDS011;54086;50.126;8.710;2023-04-15T13:03:23;6.90;;;3.23;;
67156;SDS011;54086;50.126;8.710;2023-04-15T13:05:48;8.88;;;3.85;;
67156;SDS011;54086;50.126;8.710;2023-04-15T13:08:14;6.90;;;2.50;;
67156;SDS011;54086;50.126;8.710;2023-04-15T13:10:40;6.17;;;2.80;;
67156;SDS011;54086;50.126;8.710;2023-04-15T13:13:06;5.50;;;2.20;;
67156;SDS011;54086;50.126;8.710;2023-04-15T13:15:32;5.53;;;2.38;;
67156;SDS011;54086;50.126;8.710;2023-04-15T13:17:57;5.27;;;2.20;;
67156;SDS011;54086;50.126;8.710;2023-04-15T13:20:22;5.40;;;2.20;;
67156;SDS011;54086;50.126;8.710;2023-04-15T13:22:50;5.60;;;2.20;;
67156;SDS011;54086;50.126;8.710;2023-04-15T13:25:16;4.47;;;1.80;;
67156;SDS011;54086;50.126;8.710;2023-04-15T13:27:42;5.67;;;2.00;;
67156;SDS011;54086;50.126;8.710;2023-04-15T13:30:07;4.87;;;1.87;;
67156;SDS011;54086;50.126;8.710;2023-04-15T13:32:33;6.25;;;2.10;;
67156;SDS011;54086;50.126;8.710;2023-04-15T13:34:59;6.30;;;1.67;;
67156;SDS011;54086;50.126;8.710;2023-04-15T13:37:28;5.27;;;2.00;;
67156;SDS011;54086;50.126;8.710;2023-04-15T13:39:54;3.42;;;1.70;;
67156;SDS011;54086;50.126;8.710;2023-04-15T13:42:20;4.97;;;1.50;;
67156;SDS011;54086;50.126;8.710;2023-04-15T13:44:49;3.63;;;1.30;;
67156;SDS011;54086;50.126;8.710;2023-04-15T13:47:18;3.60;;;1.37;;
67156;SDS011;54086;50.126;8.710;2023-04-15T13:49:44;3.88;;;1.70;;
67156;SDS011;54086;50.126;8.710;2023-04-15T13:52:10;4.82;;;1.92;;
67156;SDS011;54086;50.126;8.710;2023-04-15T13:54:36;5.82;;;2.17;;
67156;SDS011;54086;50.126;8.710;2023-04-15T13:57:01;5.47;;;2.03;;
67156;SDS011;54086;50.126;8.710;2023-04-15T13:59:26;5.83;;;2.17;;
67156;SDS011;54086;50.126;8.710;2023-04-15T14:01:52;4.07;;;1.67;;
67156;SDS011;54086;50.126;8.710;2023-04-15T14:04:17;4.47;;;1.80;;
67156;SDS011;54086;50.126;8.710;2023-04-15T14:06:43;3.38;;;1.40;;
67156;SDS011;54086;50.126;8.710;2023-04-15T14:09:08;3.90;;;1.60;;
67156;SDS011;54086;50.126;8.710;2023-04-15T14:11:34;5.43;;;2.00;;
67156;SDS011;54086;50.126;8.710;2023-04-15T14:14:01;5.22;;;2.25;;
67156;SDS011;54086;50.126;8.710;2023-04-15T14:16:27;7.07;;;2.50;;
67156;SDS011;54086;50.126;8.710;2023-04-15T14:18:52;6.93;;;2.60;;
67156;SDS011;54086;50.126;8.710;2023-04-15T14:21:18;5.67;;;2.30;;
67156;SDS011;54086;50.126;8.710;2023-04-15T14:23:43;4.40;;;1.77;;
67156;SDS011;54086;50.126;8.710;2023-04-15T14:26:09;5.67;;;1.90;;
67156;SDS011;54086;50.126;8.710;2023-04-15T14:28:34;7.68;;;2.38;;
67156;SDS011;54086;50.126;8.710;2023-04-15T14:31:02;30.27;;;14.87;;
67156;SDS011;54086;50.126;8.710;2023-04-15T14:33:27;7.75;;;3.13;;
67156;SDS011;54086;50.126;8.710;2023-04-15T14:35:53;5.43;;;2.03;;
67156;SDS011;54086;50.126;8.710;2023-04-15T14:38:18;4.93;;;1.70;;
67156;SDS011;54086;50.126;8.710;2023-04-15T14:40:46;5.22;;;2.00;;
67156;SDS011;54086;50.126;8.710;2023-04-15T14:43:12;4.90;;;2.00;;
67156;SDS011;54086;50.126;8.710;2023-04-15T14:45:37;5.93;;;2.80;;
67156;SDS011;54086;50.126;8.710;2023-04-15T14:48:03;4.63;;;1.90;;
67156;SDS011;54086;50.126;8.710;2023-04-15T14:50:30;5.95;;;2.28;;